createdAt,value
2022-12-08T00:04:00.974Z,22.28
2022-12-08T00:09:21.138Z,22.24
2022-12-08T00:14:25.911Z,22.27
2022-12-08T00:19:30.622Z,22.23
2022-12-08T00:24:35.753Z,22.25
2022-12-08T00:29:38.804Z,22.29
2022-12-08T00:34:43.039Z,22.25
2022-12-08T00:39:45.798Z,22.25
2022-12-08T00:44:48.601Z,22.27
2022-12-08T00:49:52.761Z,22.27
2022-12-08T00:54:55.678Z,22.31
2022-12-08T00:59:58.400Z,22.32
2022-12-08T01:05:02.511Z,22.27
2022-12-08T01:10:06.580Z,22.21
2022-12-08T01:15:10.253Z,22.24
2022-12-08T01:20:14.979Z,22.21
2022-12-08T01:25:18.185Z,22.18
2022-12-08T01:30:21.134Z,22.20
2022-12-08T01:35:25.283Z,22.17
2022-12-08T01:40:28.090Z,22.22
2022-12-08T01:45:33.549Z,22.23
2022-12-08T01:50:39.502Z,22.28
2022-12-08T01:55:44.793Z,22.31
2022-12-08T02:00:48.216Z,22.30
2022-12-08T02:05:53.371Z,22.26
2022-12-08T02:10:56.357Z,22.17
2022-12-08T02:16:04.672Z,22.10
2022-12-08T02:21:18.147Z,22.00
2022-12-08T02:27:11.842Z,21.88
2022-12-08T02:32:37.781Z,21.77
2022-12-08T02:37:49.363Z,21.69
2022-12-08T02:42:58.123Z,21.58
2022-12-08T02:48:01.537Z,21.49
2022-12-08T02:58:25.741Z,21.33
2022-12-08T03:03:36.685Z,21.25
2022-12-08T03:08:52.470Z,21.19
2022-12-08T03:14:00.355Z,21.09
2022-12-08T03:19:11.101Z,21.03
2022-12-08T03:24:18.198Z,20.95
2022-12-08T03:29:21.452Z,20.91
2022-12-08T03:34:27.297Z,20.83
2022-12-08T03:39:31.413Z,20.79
2022-12-08T03:44:34.201Z,20.73
2022-12-08T03:49:37.054Z,20.69
2022-12-08T03:54:41.264Z,20.66
2022-12-08T03:59:44.115Z,20.60
2022-12-08T04:04:49.569Z,20.55
2022-12-08T04:09:53.736Z,20.51
2022-12-08T04:14:56.556Z,20.47
2022-12-08T04:19:59.436Z,20.45
2022-12-08T04:25:03.773Z,20.46
2022-12-08T04:30:08.129Z,20.39
2022-12-08T04:35:11.049Z,20.34
2022-12-08T04:40:15.741Z,20.33
2022-12-08T04:45:19.274Z,20.27
2022-12-08T04:50:22.132Z,20.25
2022-12-08T04:55:26.326Z,20.22
2022-12-08T05:00:29.289Z,20.17
2022-12-08T05:05:32.258Z,20.18
2022-12-08T05:10:36.491Z,20.14
2022-12-08T05:15:39.557Z,20.10
2022-12-08T05:20:42.401Z,20.07
2022-12-08T05:25:46.528Z,20.03
2022-12-08T05:30:49.411Z,20.01
2022-12-08T05:35:52.160Z,20.00
2022-12-08T05:40:56.375Z,19.99
2022-12-08T05:45:59.283Z,19.96
2022-12-08T05:51:02.091Z,19.94
2022-12-08T05:56:06.687Z,19.93
2022-12-08T06:01:18.927Z,19.92
2022-12-08T06:06:21.993Z,19.90
2022-12-08T06:11:28.735Z,19.88
2022-12-08T06:16:31.807Z,19.86
2022-12-08T06:21:34.785Z,19.85
2022-12-08T06:26:40.225Z,19.84
2022-12-08T06:31:43.013Z,19.83
2022-12-08T06:36:45.834Z,19.82
2022-12-08T06:42:07.310Z,19.80
2022-12-08T06:47:10.039Z,19.77
2022-12-08T06:52:12.870Z,19.77
2022-12-08T06:57:18.396Z,19.75
2022-12-08T07:02:21.224Z,19.75
2022-12-08T07:07:24.105Z,19.72
2022-12-08T07:12:28.244Z,19.72
2022-12-08T07:17:30.992Z,19.71
2022-12-08T07:22:33.876Z,19.68
2022-12-08T07:27:37.999Z,19.68
2022-12-08T07:32:41.080Z,19.66
2022-12-08T07:37:44.103Z,19.65
2022-12-08T07:42:48.238Z,19.65
2022-12-08T07:47:51.016Z,19.65
2022-12-08T07:52:53.865Z,19.65
2022-12-08T07:57:57.981Z,19.64
2022-12-08T08:03:00.946Z,19.63
2022-12-08T08:08:04.105Z,19.70
2022-12-08T08:13:09.196Z,19.85
2022-12-08T08:18:12.040Z,17.94
2022-12-08T08:23:14.883Z,16.62
2022-12-08T08:28:19.132Z,17.41
2022-12-08T08:33:22.321Z,18.10
2022-12-08T08:38:25.768Z,18.43
2022-12-08T08:43:34.472Z,18.72
2022-12-08T08:48:40.887Z,18.95
2022-12-08T08:53:43.915Z,19.15
2022-12-08T08:58:49.440Z,19.29
2022-12-08T09:03:52.477Z,19.42
2022-12-08T09:08:55.489Z,19.53
2022-12-08T09:13:59.620Z,19.63
2022-12-08T09:19:02.429Z,19.73
2022-12-08T09:24:05.692Z,19.80
2022-12-08T09:29:09.837Z,19.87
2022-12-08T09:34:13.827Z,19.93
2022-12-08T09:39:16.896Z,19.98
2022-12-08T09:44:45.160Z,20.04
2022-12-08T09:49:57.364Z,20.09
2022-12-08T09:55:04.996Z,20.14
2022-12-08T10:00:14.348Z,20.18
2022-12-08T10:05:17.265Z,20.21
2022-12-08T10:10:31.746Z,20.26
2022-12-08T10:15:42.809Z,20.33
2022-12-08T10:20:47.326Z,20.38
2022-12-08T10:25:52.156Z,20.43
2022-12-08T10:30:56.479Z,20.46
2022-12-08T10:36:03.024Z,20.47
2022-12-08T10:41:12.335Z,20.46
2022-12-08T10:46:21.546Z,20.45
2022-12-08T10:51:28.394Z,20.43
2022-12-08T10:56:32.441Z,20.42
2022-12-08T11:01:40.204Z,20.44
2022-12-08T11:06:43.874Z,20.47
2022-12-08T11:11:50.164Z,20.50
2022-12-08T11:16:57.076Z,20.54
2022-12-08T11:22:00.005Z,20.57
2022-12-08T11:27:04.663Z,20.61
2022-12-08T11:32:13.818Z,20.64
2022-12-08T11:37:23.628Z,20.66
2022-12-08T11:42:33.985Z,20.70
2022-12-08T11:47:44.770Z,20.71
2022-12-08T11:52:50.744Z,20.73
2022-12-08T11:57:58.347Z,20.76
2022-12-08T12:03:13.869Z,20.80
2022-12-08T12:08:36.644Z,20.80
2022-12-08T12:13:57.988Z,20.79
2022-12-08T12:19:06.613Z,20.78
2022-12-08T12:24:20.952Z,20.75
2022-12-08T12:29:32.251Z,20.71
2022-12-08T12:34:39.980Z,20.67
2022-12-08T12:39:50.825Z,20.62
2022-12-08T12:45:12.957Z,20.60
2022-12-08T12:50:43.267Z,20.63
2022-12-08T12:55:55.791Z,20.66
2022-12-08T13:01:32.105Z,20.70
2022-12-08T13:06:41.081Z,20.73
2022-12-08T13:11:51.041Z,20.75
2022-12-08T13:16:56.203Z,20.78
2022-12-08T13:22:01.439Z,20.79
2022-12-08T13:27:34.244Z,20.78
2022-12-08T13:38:27.375Z,20.75
2022-12-08T13:43:51.001Z,20.72
2022-12-08T13:59:52.529Z,20.59
2022-12-08T14:10:24.521Z,20.55
2022-12-08T14:15:31.252Z,20.57
2022-12-08T14:20:57.702Z,20.64
2022-12-08T14:26:02.526Z,20.68
2022-12-08T14:31:05.946Z,20.73
2022-12-08T14:36:10.749Z,20.72
2022-12-08T14:41:15.177Z,20.71
2022-12-08T14:46:22.511Z,20.66
2022-12-08T14:51:33.028Z,20.62
2022-12-08T14:56:40.613Z,20.57
2022-12-08T15:01:44.823Z,20.54
2022-12-08T15:06:53.569Z,20.47
2022-12-08T15:12:03.393Z,20.37
2022-12-08T15:17:32.469Z,20.26
2022-12-08T15:22:35.343Z,20.25
2022-12-08T15:27:49.825Z,20.22
2022-12-08T15:32:54.167Z,20.17
2022-12-08T15:37:58.154Z,20.33
2022-12-08T15:43:02.251Z,20.43
2022-12-08T15:48:05.450Z,20.55
2022-12-08T15:53:09.650Z,20.67
2022-12-08T16:04:27.600Z,20.96
2022-12-08T16:09:12.197Z,21.13
2022-12-08T16:15:22.939Z,21.26
2022-12-08T16:19:40.270Z,21.36
2022-12-08T16:24:43.248Z,21.44
2022-12-08T16:29:48.240Z,21.49
2022-12-08T16:34:51.843Z,21.55
2022-12-08T16:39:56.966Z,21.58
2022-12-08T16:45:03.825Z,21.60
2022-12-08T16:50:08.224Z,21.64
2022-12-08T16:55:12.358Z,21.68
2022-12-08T17:00:21.177Z,21.72
2022-12-08T17:05:25.729Z,21.78
2022-12-08T17:10:31.599Z,21.80
2022-12-08T17:15:35.712Z,21.88
2022-12-08T17:20:40.384Z,21.91
2022-12-08T17:25:43.150Z,21.90
2022-12-08T17:30:47.242Z,21.91
2022-12-08T17:35:50.597Z,21.90
2022-12-08T17:40:58.363Z,21.88
2022-12-08T17:46:03.124Z,21.89
2022-12-08T17:51:10.453Z,21.89
2022-12-08T17:56:16.609Z,21.90
2022-12-08T18:01:20.797Z,21.89
2022-12-08T18:06:28.180Z,21.89
2022-12-08T18:11:34.851Z,21.92
2022-12-08T18:16:42.155Z,21.98
2022-12-08T18:21:45.587Z,22.03
2022-12-08T18:26:48.968Z,22.07
2022-12-08T18:31:53.720Z,22.09
2022-12-08T18:36:56.458Z,22.12
2022-12-08T18:42:02.586Z,22.12
2022-12-08T18:47:06.780Z,22.05
2022-12-08T18:52:09.614Z,21.96
2022-12-08T18:57:12.417Z,22.02
2022-12-08T19:02:17.730Z,22.06
2022-12-08T19:07:20.588Z,22.00
2022-12-08T19:12:23.641Z,22.00
2022-12-08T19:17:29.591Z,22.00
2022-12-08T19:22:32.492Z,22.03
2022-12-08T19:27:35.430Z,22.05
2022-12-08T19:32:39.621Z,22.05
2022-12-08T19:37:42.425Z,22.05
2022-12-08T19:43:02.642Z,22.04
2022-12-08T19:48:07.290Z,22.02
2022-12-08T19:53:13.446Z,22.03
2022-12-08T19:58:17.647Z,22.03
2022-12-08T20:03:23.170Z,22.01
2022-12-08T20:08:26.139Z,22.04
2022-12-08T20:13:45.751Z,22.06
2022-12-08T20:18:49.962Z,22.05
2022-12-08T20:23:52.863Z,22.05
2022-12-08T20:28:55.712Z,22.07
2022-12-08T20:33:59.940Z,22.08
2022-12-08T20:39:02.697Z,22.09
2022-12-08T20:44:06.932Z,22.07
2022-12-08T20:49:11.353Z,22.10
2022-12-08T20:54:14.427Z,22.10
2022-12-08T20:59:18.291Z,22.10
2022-12-08T21:04:23.948Z,22.11
2022-12-08T21:09:27.170Z,22.11
2022-12-08T21:14:30.339Z,22.07
2022-12-08T21:19:34.731Z,22.10
2022-12-08T21:24:38.446Z,22.12
2022-12-08T21:29:41.192Z,22.14
2022-12-08T21:34:45.612Z,22.15
2022-12-08T21:39:48.659Z,22.12
2022-12-08T21:44:51.549Z,22.12
2022-12-08T21:49:55.743Z,22.17
2022-12-08T21:54:58.710Z,22.24
2022-12-08T22:00:01.701Z,22.25
2022-12-08T22:05:09.567Z,22.29
2022-12-08T22:10:12.774Z,22.32
2022-12-08T22:15:16.387Z,22.31
2022-12-08T22:20:20.719Z,22.31
2022-12-08T22:25:23.768Z,22.34
2022-12-08T22:30:26.591Z,22.32
2022-12-08T22:35:30.814Z,22.35
2022-12-08T22:40:33.677Z,22.41
2022-12-08T22:45:36.560Z,22.46
2022-12-08T22:50:41.777Z,22.42
2022-12-08T22:55:46.552Z,22.38
2022-12-08T23:00:49.615Z,22.43
2022-12-08T23:05:54.024Z,22.42
2022-12-08T23:10:56.912Z,22.43
2022-12-08T23:15:59.678Z,22.41
2022-12-08T23:21:09.143Z,22.40
